• Join FlightAware (Why Join?)
  • Login
  • US Flag 
03:50AM EST


 

Airport Tracker/Info


-or-


 

Live Flight TrackerFlight Track Log ✈ N3SD ✈ 09-May-2013 ✈ KALB - KGFL

Flight Track Log - Related Links

Times and Time Zones

All times are in EDT time to prevent confusion due to time zone crossing. See the N3SD flight status page for this flight to view local times or setup timezone preferences in your user account.

Time Position Orientation Groundspeed Altitude Reporting Facility
EDT Latitude Longitude Course Direction KTS MPH feet Rate Location/Type
12:52PM 42.7319 -73.8081 122° Southeast 85 98 800  Level Boston Center
12:54PM 42.7217 -73.7853 122° Southeast 87 100 1,300 469 Climbing Boston Center
12:55PM 42.7306 -73.7544 69° East 91 105 1,800 496 Climbing Boston Center
12:56PM 42.7556 -73.7381 26° Northeast 100 115 2,300 496 Climbing Boston Center
12:57PM 42.7850 -73.7331 North 102 117 2,800 298 Climbing Boston Center
12:58PM 42.8183 -73.7250 10° North 121 139 2,900 50 Climbing Boston Center
12:59PM 42.8558 -73.7117 15° North 149 171 2,900 49 Level Boston Center
01:00PM 42.8958 -73.6956 16° North 145 167 3,000 99 Climbing Boston Center
01:01PM 42.9356 -73.6794 17° North 142 163 3,100 50 Climbing Boston Center
01:02PM 42.9731 -73.6658 15° North 144 166 3,100 -49 Level Boston Center
01:03PM 43.0108 -73.6469 20° North 148 170 3,000 -99 Descending Boston Center
01:04PM 43.0506 -73.6306 17° North 151 174 2,900 -99 Descending Boston Center
01:05PM 43.0883 -73.6142 18° North 146 168 2,800 -246 Descending Boston Center
01:06PM 43.1303 -73.5981 16° North 148 170 2,400 -397 Descending Boston Center
01:07PM 43.1719 -73.6044 354° North 144 166 2,000 -400 Descending Boston Center
01:09PM 43.2262 -73.6063 16° North  Level Estimated
01:16PM 43.3333 -73.6000 10° North  Level FlightAware Approximate
01:17PM 43.3412 -73.6103 10° North  Level Estimated
01:18PM 43.3412 -73.6103 10° North  Level Estimated
01:19PM 43.3412 -73.6103 10° North  Level Estimated
01:20PM 43.3412 -73.6103 10° North  Level Estimated
01:21PM 43.3412 -73.6103 10° North  Level Estimated
01:22PM 43.3412 -73.6103 10° North  Level Estimated
01:23PM 43.3412 -73.6103 10° North  Level Estimated